Time;durP1;ratioP1;P1;durP2;ratioP2;P2;SDS_P1;SDS_P2;PMS_P1;PMS_P2;Temp;Humidity;BMP_temperature;BMP_pressure;BME280_temperature;BME280_humidity;BME280_pressure;Samples;Min_cycle;Max_cycle;Signal;HPM_P1;HPM_P2
2023/11/18 00:00:48;;;;;;;17.40;13.00;;;5.20;99.90;;;;;;5043206;28;20662;-73
2023/11/18 00:03:15;;;;;;;15.70;12.32;;;5.20;99.90;;;;;;5043990;28;20217;-72
2023/11/18 00:05:42;;;;;;;29.98;15.25;;;5.20;99.90;;;;;;5030199;28;20314;-74
2023/11/18 00:08:13;;;;;;;15.45;11.05;;;5.20;99.90;;;;;;5044849;28;20287;-71
2023/11/18 00:10:40;;;;;;;17.30;12.30;;;5.20;99.90;;;;;;5037799;28;20280;-70
2023/11/18 00:13:07;;;;;;;14.93;13.00;;;5.20;99.90;;;;;;5040278;28;20210;-72
2023/11/18 00:15:35;;;;;;;19.55;14.07;;;5.10;99.90;;;;;;5042016;28;20229;-72
2023/11/18 00:18:01;;;;;;;20.50;11.65;;;5.00;99.90;;;;;;5045521;28;20236;-73
2023/11/18 00:20:30;;;;;;;20.10;12.27;;;5.00;99.90;;;;;;5036002;28;20216;-73
2023/11/18 00:22:57;;;;;;;18.55;13.23;;;5.10;99.90;;;;;;5041905;28;20213;-70
2023/11/18 00:25:25;;;;;;;19.45;12.32;;;5.20;99.90;;;;;;5044015;28;20223;-71
2023/11/18 00:27:52;;;;;;;17.08;12.43;;;5.10;99.90;;;;;;5031850;28;20205;-76
2023/11/18 00:30:19;;;;;;;16.25;11.00;;;5.00;99.90;;;;;;5039222;28;20279;-74
2023/11/18 00:32:46;;;;;;;16.10;11.98;;;5.00;99.90;;;;;;5033823;28;20288;-73
2023/11/18 00:35:13;;;;;;;13.57;10.45;;;4.90;99.90;;;;;;5040164;28;20310;-71
2023/11/18 00:37:40;;;;;;;20.17;11.23;;;4.90;99.90;;;;;;5036468;28;20205;-72
2023/11/18 00:40:09;;;;;;;13.82;10.02;;;4.90;99.90;;;;;;5040532;28;20220;-71
2023/11/18 00:42:38;;;;;;;22.27;10.90;;;4.80;99.90;;;;;;5036330;28;20217;-75
2023/11/18 00:45:05;;;;;;;11.88;9.55;;;4.70;99.90;;;;;;5042881;28;20307;-74
2023/11/18 00:47:32;;;;;;;16.33;10.80;;;4.70;99.90;;;;;;5028913;28;20213;-74
2023/11/18 00:50:01;;;;;;;15.25;10.02;;;4.70;99.90;;;;;;5033528;28;20550;-75
2023/11/18 00:52:28;;;;;;;13.40;11.27;;;4.70;99.90;;;;;;5037494;28;20198;-73
2023/11/18 00:54:55;;;;;;;16.88;11.30;;;4.60;99.90;;;;;;5039018;28;20303;-73
2023/11/18 00:57:22;;;;;;;22.15;12.85;;;4.60;99.90;;;;;;5026466;28;20205;-70
2023/11/18 00:59:50;;;;;;;16.55;11.57;;;4.60;99.90;;;;;;5037492;28;20260;-73
2023/11/18 01:02:17;;;;;;;14.00;10.27;;;4.60;99.90;;;;;;5030005;28;20317;-76
2023/11/18 01:04:45;;;;;;;14.90;12.52;;;4.70;99.90;;;;;;5044134;28;20478;-74
2023/11/18 01:07:12;;;;;;;18.15;11.60;;;4.70;99.90;;;;;;5035992;28;20564;-74
2023/11/18 01:09:40;;;;;;;15.13;10.65;;;4.80;99.90;;;;;;5024529;28;20293;-72
2023/11/18 01:12:09;;;;;;;13.70;10.70;;;4.80;99.90;;;;;;5038646;28;20219;-74
2023/11/18 01:14:38;;;;;;;15.40;10.75;;;4.90;99.90;;;;;;5019148;28;20240;-75
2023/11/18 01:17:06;;;;;;;16.10;12.30;;;5.00;99.90;;;;;;5039449;28;20211;-75
2023/11/18 01:19:33;;;;;;;15.35;11.00;;;5.00;99.90;;;;;;5032785;28;20625;-73
2023/11/18 01:22:00;;;;;;;13.20;11.25;;;5.00;99.90;;;;;;5036501;28;20709;-72
2023/11/18 01:24:28;;;;;;;15.52;11.38;;;5.20;99.90;;;;;;5035344;28;20339;-72
2023/11/18 01:26:54;;;;;;;12.63;10.30;;;5.20;99.90;;;;;;5040677;28;20204;-75
2023/11/18 01:29:22;;;;;;;10.85;9.30;;;5.20;99.90;;;;;;5037183;28;20213;-73
2023/11/18 01:31:48;;;;;;;11.45;10.25;;;5.30;99.90;;;;;;5033491;28;20197;-70
2023/11/18 01:34:18;;;;;;;12.35;10.00;;;5.30;99.90;;;;;;5043335;28;20304;-73
2023/11/18 01:36:45;;;;;;;11.88;9.50;;;5.30;99.90;;;;;;5036790;28;20287;-73
2023/11/18 01:39:13;;;;;;;11.20;9.32;;;5.50;99.90;;;;;;5039686;28;20237;-74
2023/11/18 01:41:40;;;;;;;12.77;10.00;;;5.40;99.90;;;;;;5032290;28;20278;-72
2023/11/18 01:44:07;;;;;;;10.52;8.43;;;5.50;99.90;;;;;;5043999;28;20247;-71
2023/11/18 01:46:35;;;;;;;11.38;9.05;;;5.50;99.90;;;;;;5041498;28;20207;-71
2023/11/18 01:49:03;;;;;;;13.35;9.82;;;5.50;99.90;;;;;;5033781;28;20203;-73
2023/11/18 01:51:32;;;;;;;11.93;8.52;;;5.50;99.90;;;;;;5103171;22;20214;-87
2023/11/18 01:54:01;;;;;;;13.63;9.18;;;5.50;99.90;;;;;;5089024;28;20204;-86
2023/11/18 01:56:28;;;;;;;10.73;8.52;;;5.70;99.90;;;;;;5073077;28;20254;-84
2023/11/18 01:58:58;;;;;;;11.68;8.70;;;5.70;99.90;;;;;;5077253;28;20267;-85
2023/11/18 02:01:31;;;;;;;11.40;8.70;;;5.70;99.90;;;;;;5095361;28;20219;-84
2023/11/18 02:03:59;;;;;;;11.15;9.55;;;5.80;99.90;;;;;;5083382;28;20257;-84
2023/11/18 02:06:26;;;;;;;11.07;8.50;;;5.80;99.90;;;;;;5086970;28;20202;-84
2023/11/18 02:08:56;;;;;;;19.27;8.73;;;5.70;99.90;;;;;;5084158;28;20210;-84
2023/11/18 02:11:32;;;;;;;8.75;6.40;;;5.70;99.90;;;;;;5076239;28;20216;-84
2023/11/18 02:14:03;;;;;;;11.73;8.70;;;5.80;99.90;;;;;;5090597;28;20192;-86
2023/11/18 02:16:31;;;;;;;17.13;11.02;;;5.80;99.90;;;;;;5082491;28;20195;-86
2023/11/18 02:18:59;;;;;;;17.42;12.02;;;5.90;99.90;;;;;;5080243;28;20192;-86
2023/11/18 02:21:26;;;;;;;14.00;9.73;;;5.90;99.90;;;;;;5096915;28;20290;-86
2023/11/18 02:23:55;;;;;;;13.82;9.10;;;5.90;99.90;;;;;;5087169;28;20245;-85
2023/11/18 02:26:26;;;;;;;15.90;8.60;;;5.70;99.90;;;;;;5092184;28;20553;-84
2023/11/18 02:28:53;;;;;;;13.50;9.15;;;5.60;99.90;;;;;;5083597;28;20200;-84
2023/11/18 02:31:31;;;;;;;11.27;7.85;;;5.60;99.90;;;;;;5079076;28;20231;-85
2023/11/18 02:34:03;;;;;;;15.85;10.05;;;5.60;99.90;;;;;;5084715;28;20195;-84
2023/11/18 02:36:36;;;;;;;9.68;8.30;;;5.70;99.90;;;;;;5082155;28;20206;-84
2023/11/18 02:39:08;;;;;;;12.00;8.88;;;5.70;99.90;;;;;;5070640;28;20264;-85
2023/11/18 02:41:39;;;;;;;9.98;8.05;;;5.80;99.90;;;;;;5072808;28;20299;-84
2023/11/18 02:44:10;;;;;;;10.52;8.02;;;5.80;99.90;;;;;;5091264;28;20214;-85
2023/11/18 02:46:38;;;;;;;12.80;9.10;;;5.80;99.90;;;;;;5099137;28;20172;-87
2023/11/18 02:49:05;;;;;;;8.57;7.38;;;5.80;99.90;;;;;;5085715;28;20179;-84
2023/11/18 02:51:33;;;;;;;10.80;8.20;;;5.80;99.90;;;;;;5087738;28;20223;-85
2023/11/18 02:54:00;;;;;;;11.43;7.97;;;5.90;99.90;;;;;;5069674;28;20204;-85
2023/11/18 02:56:27;;;;;;;10.30;8.27;;;5.90;99.90;;;;;;5066851;28;20581;-84
2023/11/18 02:58:55;;;;;;;14.35;11.25;;;5.80;99.90;;;;;;5070580;28;20286;-85
2023/11/18 03:01:22;;;;;;;10.10;9.02;;;5.70;99.90;;;;;;5064735;28;20287;-86
2023/11/18 03:03:49;;;;;;;11.73;8.70;;;5.70;99.90;;;;;;5069309;28;20202;-84
2023/11/18 03:06:16;;;;;;;12.60;9.50;;;5.70;99.90;;;;;;5088459;28;20558;-85
2023/11/18 03:08:43;;;;;;;12.82;8.88;;;5.70;99.90;;;;;;5081273;28;20202;-85
2023/11/18 03:11:10;;;;;;;12.25;9.20;;;5.90;99.90;;;;;;5067849;28;20661;-84
2023/11/18 03:13:38;;;;;;;11.80;9.20;;;5.70;99.90;;;;;;5071034;28;20244;-83
2023/11/18 03:16:11;;;;;;;370.95;238.98;;;5.60;99.90;;;;;;5078245;28;20243;-85
2023/11/18 03:18:39;;;;;;;20.40;16.48;;;5.60;99.90;;;;;;5082797;28;20835;-85
2023/11/18 03:21:07;;;;;;;14.10;10.77;;;5.60;99.90;;;;;;5084543;28;20223;-85
2023/11/18 03:23:34;;;;;;;12.35;10.68;;;5.50;99.90;;;;;;5079908;28;20221;-84
2023/11/18 03:26:01;;;;;;;18.40;13.82;;;5.60;99.90;;;;;;5072787;28;20293;-84
2023/11/18 03:28:28;;;;;;;14.18;12.50;;;5.60;99.90;;;;;;5072797;28;20206;-84
2023/11/18 03:30:57;;;;;;;11.23;9.75;;;5.50;99.90;;;;;;5077155;28;20243;-84
2023/11/18 03:33:25;;;;;;;17.35;11.50;;;5.50;99.90;;;;;;5079147;28;20222;-83
2023/11/18 03:35:52;;;;;;;14.10;10.63;;;5.50;99.90;;;;;;5084781;28;20199;-84
2023/11/18 03:38:19;;;;;;;14.52;11.98;;;5.40;99.90;;;;;;5086755;28;20277;-83
2023/11/18 03:40:46;;;;;;;18.60;12.65;;;5.40;99.90;;;;;;5079718;28;20599;-85
2023/11/18 03:43:13;;;;;;;15.52;11.73;;;5.40;99.90;;;;;;5082134;28;20609;-85
2023/11/18 03:45:40;;;;;;;16.92;12.30;;;5.40;99.90;;;;;;5082923;28;20230;-85
2023/11/18 03:48:07;;;;;;;17.13;14.00;;;5.40;99.90;;;;;;5077981;28;20212;-84
2023/11/18 03:50:39;;;;;;;15.73;12.98;;;5.40;99.90;;;;;;5074183;28;20239;-84
2023/11/18 03:53:06;;;;;;;22.80;16.15;;;5.40;99.90;;;;;;5069357;28;20553;-85
2023/11/18 03:55:33;;;;;;;19.70;15.30;;;5.50;99.90;;;;;;5072333;28;20212;-85
2023/11/18 03:58:00;;;;;;;20.02;14.10;;;5.70;99.90;;;;;;5094264;28;20203;-85
2023/11/18 04:00:29;;;;;;;17.00;13.32;;;5.60;99.90;;;;;;5080330;28;20211;-85
2023/11/18 04:02:57;;;;;;;22.58;15.57;;;5.60;99.90;;;;;;5090147;28;20196;-85
2023/11/18 04:05:24;;;;;;;23.30;16.63;;;5.70;99.90;;;;;;5076365;28;20196;-84
2023/11/18 04:07:52;;;;;;;30.17;16.25;;;5.80;99.90;;;;;;5082241;28;20223;-84
2023/11/18 04:10:20;;;;;;;24.23;15.57;;;5.80;99.90;;;;;;5084212;28;20195;-85
2023/11/18 04:12:48;;;;;;;19.88;14.75;;;5.70;99.90;;;;;;5076070;28;20216;-85
2023/11/18 04:15:15;;;;;;;18.58;14.80;;;5.70;99.90;;;;;;5077436;28;20204;-84
2023/11/18 04:17:43;;;;;;;19.48;16.45;;;5.70;99.90;;;;;;5070878;28;20301;-84
2023/11/18 04:20:12;;;;;;;23.65;17.05;;;5.60;99.90;;;;;;5078103;28;20204;-84
2023/11/18 04:22:40;;;;;;;18.63;14.57;;;5.50;99.90;;;;;;5080030;28;20224;-84
2023/11/18 04:25:10;;;;;;;20.13;15.40;;;5.50;99.90;;;;;;5064742;28;20204;-84
2023/11/18 04:27:37;;;;;;;19.25;15.55;;;5.40;99.90;;;;;;5071964;28;20212;-85
2023/11/18 04:30:04;;;;;;;21.98;17.52;;;5.40;99.90;;;;;;5080040;28;20216;-85
2023/11/18 04:32:32;;;;;;;22.48;16.00;;;5.40;99.90;;;;;;5074613;28;20211;-84
2023/11/18 04:34:59;;;;;;;25.48;20.50;;;5.40;99.90;;;;;;5070388;28;20233;-85
2023/11/18 04:37:26;;;;;;;31.38;22.42;;;5.50;99.90;;;;;;5073389;28;20287;-85
2023/11/18 04:39:55;;;;;;;32.13;23.25;;;5.40;99.90;;;;;;5070565;28;20266;-85
2023/11/18 04:42:23;;;;;;;33.38;24.92;;;5.40;99.90;;;;;;5077001;28;20227;-86
2023/11/18 04:44:50;;;;;;;36.78;25.50;;;5.30;99.90;;;;;;5072900;28;20721;-86
2023/11/18 04:47:18;;;;;;;39.95;30.13;;;5.20;99.90;;;;;;5072426;28;20322;-84
2023/11/18 04:49:45;;;;;;;39.95;28.38;;;5.20;99.90;;;;;;5076875;28;20273;-86
2023/11/18 04:52:12;;;;;;;34.83;25.70;;;5.20;99.90;;;;;;5084612;28;20230;-85
2023/11/18 04:54:39;;;;;;;39.95;27.17;;;5.20;99.90;;;;;;5080223;28;20237;-85
2023/11/18 04:57:08;;;;;;;32.35;24.80;;;5.20;99.90;;;;;;5073920;28;20200;-84
2023/11/18 04:59:37;;;;;;;34.92;26.90;;;5.30;99.90;;;;;;5073926;28;20203;-84
2023/11/18 05:02:03;;;;;;;37.28;27.85;;;5.40;99.90;;;;;;5067323;28;20237;-85
2023/11/18 05:04:30;;;;;;;32.90;24.05;;;5.20;99.90;;;;;;5071355;28;20660;-85
2023/11/18 05:06:57;;;;;;;37.45;25.63;;;5.30;99.90;;;;;;5073012;28;20203;-85
2023/11/18 05:09:24;;;;;;;31.38;24.95;;;5.30;99.90;;;;;;5087634;28;20255;-83
2023/11/18 05:11:51;;;;;;;36.10;23.50;;;5.50;99.90;;;;;;5081576;28;20242;-83
2023/11/18 05:14:18;;;;;;;44.45;30.50;;;5.60;99.90;;;;;;5083933;28;20188;-85
2023/11/18 05:16:46;;;;;;;37.42;29.85;;;5.50;99.90;;;;;;5096713;28;20190;-86
2023/11/18 05:19:14;;;;;;;31.75;24.20;;;5.50;99.90;;;;;;5088514;28;20259;-86
2023/11/18 05:21:41;;;;;;;35.90;25.98;;;5.50;99.90;;;;;;5087056;28;20219;-83
2023/11/18 05:24:09;;;;;;;40.05;30.30;;;5.50;99.90;;;;;;5088583;28;20264;-84
2023/11/18 05:26:36;;;;;;;43.92;30.08;;;5.50;99.90;;;;;;5082944;28;20290;-85
2023/11/18 05:29:03;;;;;;;51.17;32.95;;;5.50;99.90;;;;;;5082367;28;20200;-84
2023/11/18 05:31:31;;;;;;;45.40;31.20;;;5.40;99.90;;;;;;5077731;28;20249;-84
2023/11/18 05:34:02;;;;;;;49.70;33.88;;;5.50;99.90;;;;;;5097873;28;20229;-86
2023/11/18 05:36:37;;;;;;;60.22;37.63;;;5.40;99.90;;;;;;5091074;28;20744;-84
2023/11/18 05:39:05;;;;;;;60.00;37.33;;;5.50;99.90;;;;;;5094183;28;20211;-84
2023/11/18 05:41:35;;;;;;;40.55;29.08;;;5.30;99.90;;;;;;5089925;28;20243;-84
2023/11/18 05:44:02;;;;;;;60.47;34.90;;;5.30;99.90;;;;;;5080190;28;20219;-84
2023/11/18 05:46:29;;;;;;;53.20;32.35;;;5.30;99.90;;;;;;5082524;28;20213;-84
2023/11/18 05:48:57;;;;;;;61.78;38.65;;;5.20;99.90;;;;;;5079016;28;20209;-84
2023/11/18 05:51:26;;;;;;;62.15;37.00;;;5.20;99.90;;;;;;5079527;28;20224;-86
2023/11/18 05:53:55;;;;;;;63.97;39.58;;;5.20;99.90;;;;;;5096681;28;20266;-85
2023/11/18 05:56:23;;;;;;;61.80;39.65;;;5.20;99.90;;;;;;5079107;28;20223;-83
2023/11/18 05:58:49;;;;;;;49.50;33.90;;;5.20;99.90;;;;;;5076210;28;20608;-83
2023/11/18 06:01:18;;;;;;;68.57;39.17;;;5.20;99.90;;;;;;5074078;28;20224;-83
2023/11/18 06:03:46;;;;;;;53.63;36.67;;;5.20;99.90;;;;;;5096605;28;20515;-83
2023/11/18 06:06:16;;;;;;;65.90;39.45;;;5.50;99.90;;;;;;5083297;28;20228;-84
2023/11/18 06:08:44;;;;;;;50.13;35.67;;;5.40;99.90;;;;;;5073084;28;20232;-84
2023/11/18 06:11:14;;;;;;;65.80;38.22;;;5.50;99.90;;;;;;5087369;28;20206;-86
2023/11/18 06:13:46;;;;;;;49.70;34.08;;;5.50;99.90;;;;;;5091833;28;20188;-86
2023/11/18 06:16:17;;;;;;;66.50;40.75;;;5.50;99.90;;;;;;5095185;28;20201;-86
2023/11/18 06:18:45;;;;;;;59.40;37.00;;;5.50;99.90;;;;;;5076226;28;20577;-85
2023/11/18 06:21:16;;;;;;;57.40;37.03;;;5.50;99.90;;;;;;5072544;28;20681;-85
2023/11/18 06:23:45;;;;;;;60.40;36.05;;;5.60;99.90;;;;;;5070081;28;20456;-84
2023/11/18 06:26:12;;;;;;;63.08;41.65;;;5.60;99.90;;;;;;5075119;28;20202;-85
2023/11/18 06:28:40;;;;;;;57.42;34.88;;;5.60;99.90;;;;;;5071111;28;20211;-84
2023/11/18 06:31:09;;;;;;;65.50;37.97;;;5.70;99.90;;;;;;5072894;28;20235;-83
2023/11/18 06:33:42;;;;;;;58.60;35.75;;;5.50;99.90;;;;;;5074503;28;20226;-87
2023/11/18 06:36:10;;;;;;;61.67;37.35;;;5.70;99.90;;;;;;5062906;28;20207;-87
2023/11/18 06:38:38;;;;;;;73.75;44.28;;;5.80;99.90;;;;;;5073185;28;20272;-85
2023/11/18 06:41:08;;;;;;;68.28;40.55;;;5.60;99.90;;;;;;5077655;28;20217;-86
2023/11/18 06:43:51;;;;;;;86.80;45.03;;;5.70;99.90;;;;;;5072858;28;20223;-87
2023/11/18 06:46:20;;;;;;;80.35;44.60;;;5.80;99.90;;;;;;5078552;28;20747;-88
2023/11/18 06:48:47;;;;;;;61.00;36.47;;;5.70;99.90;;;;;;5071455;28;20584;-87
2023/11/18 06:51:15;;;;;;;81.45;41.83;;;5.90;99.90;;;;;;5076970;28;20238;-87
2023/11/18 06:53:43;;;;;;;80.68;45.00;;;5.80;99.90;;;;;;5070387;28;20210;-86
2023/11/18 06:56:11;;;;;;;85.60;44.38;;;5.90;99.90;;;;;;5090059;28;20210;-85
2023/11/18 06:58:39;;;;;;;74.88;43.00;;;5.90;99.90;;;;;;5078327;28;20206;-86
2023/11/18 07:01:06;;;;;;;78.80;43.35;;;5.90;99.90;;;;;;5071429;28;20247;-85
2023/11/18 07:03:33;;;;;;;99.75;48.70;;;5.80;99.90;;;;;;5080100;28;20278;-85
2023/11/18 07:06:00;;;;;;;87.47;47.20;;;5.80;99.90;;;;;;5079276;28;20644;-84
2023/11/18 07:08:27;;;;;;;93.72;45.50;;;5.80;99.90;;;;;;5072277;28;20210;-86
2023/11/18 07:10:54;;;;;;;101.60;48.83;;;5.90;99.90;;;;;;5087528;28;20226;-87
2023/11/18 07:13:23;;;;;;;71.82;42.75;;;5.70;99.90;;;;;;5092443;28;20233;-85
2023/11/18 07:15:50;;;;;;;103.05;52.85;;;5.70;99.90;;;;;;5092792;28;20196;-86
2023/11/18 07:18:17;;;;;;;80.18;43.83;;;5.70;99.90;;;;;;5086995;28;20215;-87
2023/11/18 07:20:45;;;;;;;97.30;47.58;;;5.80;99.90;;;;;;5090959;28;20219;-85
2023/11/18 07:23:11;;;;;;;87.18;45.05;;;5.70;99.90;;;;;;5085486;28;20265;-86
2023/11/18 07:25:39;;;;;;;75.43;43.00;;;5.80;99.90;;;;;;5090707;28;20535;-87
2023/11/18 07:28:08;;;;;;;99.05;49.22;;;5.90;99.90;;;;;;5067296;28;20291;-86
2023/11/18 07:30:37;;;;;;;85.18;48.55;;;6.00;99.90;;;;;;5068322;28;20222;-87
2023/11/18 07:33:05;;;;;;;67.53;41.05;;;5.90;99.90;;;;;;5068625;28;20203;-88
2023/11/18 07:35:36;;;;;;;89.35;49.47;;;5.90;99.90;;;;;;5076899;28;20204;-87
2023/11/18 07:38:04;;;;;;;84.72;47.35;;;6.00;99.90;;;;;;5068126;28;20238;-88
2023/11/18 07:40:33;;;;;;;65.10;44.10;;;5.90;99.90;;;;;;5082843;28;20549;-83
2023/11/18 07:43:01;;;;;;;102.28;52.08;;;5.90;99.90;;;;;;5071083;28;20215;-86
2023/11/18 07:45:28;;;;;;;90.38;48.50;;;6.00;99.90;;;;;;5070739;28;20196;-83
2023/11/18 07:47:58;;;;;;;105.25;52.15;;;5.90;99.90;;;;;;5076512;28;20203;-84
2023/11/18 07:50:24;;;;;;;101.55;52.03;;;5.90;99.90;;;;;;5077862;28;20289;-84
2023/11/18 07:52:57;;;;;;;90.28;48.65;;;5.90;99.90;;;;;;5087036;22;20331;-80
2023/11/18 07:55:25;;;;;;;89.35;51.72;;;5.90;99.90;;;;;;5071715;28;20207;-85
2023/11/18 07:57:57;;;;;;;92.57;49.53;;;5.90;99.90;;;;;;5075820;28;20269;-83
2023/11/18 08:00:42;;;;;;;108.57;52.05;;;5.90;99.90;;;;;;5077784;28;20213;-82
2023/11/18 08:03:52;;;;;;;113.70;53.72;;;5.90;99.90;;;;;;5052773;28;20229;-84
2023/11/18 08:06:21;;;;;;;94.50;47.08;;;5.80;99.90;;;;;;5053494;28;20211;-87
2023/11/18 08:08:48;;;;;;;90.13;47.42;;;5.80;99.90;;;;;;5052375;28;20197;-82
2023/11/18 08:11:17;;;;;;;107.95;53.05;;;5.80;99.90;;;;;;5049146;28;20964;-81
2023/11/18 08:13:43;;;;;;;120.88;54.97;;;5.80;99.90;;;;;;5052570;28;20497;-81
2023/11/18 08:16:12;;;;;;;109.43;51.88;;;5.90;99.90;;;;;;5049370;28;20212;-80
2023/11/18 08:18:39;;;;;;;115.38;51.20;;;5.90;99.90;;;;;;5047185;28;20204;-80
2023/11/18 08:21:12;;;;;;;105.05;51.45;;;5.90;99.90;;;;;;5055138;28;20266;-84
2023/11/18 08:23:40;;;;;;;74.57;42.07;;;5.90;99.90;;;;;;5054765;28;20215;-84
2023/11/18 08:26:07;;;;;;;100.00;50.70;;;6.00;99.90;;;;;;5056548;28;20439;-85
2023/11/18 08:28:34;;;;;;;71.80;42.55;;;6.20;99.90;;;;;;5057343;28;20227;-84
2023/11/18 08:31:01;;;;;;;96.32;48.92;;;6.00;99.90;;;;;;5054245;28;20201;-88
2023/11/18 08:33:28;;;;;;;84.82;43.25;;;6.10;99.90;;;;;;5053439;28;20237;-85
2023/11/18 08:35:56;;;;;;;101.38;50.70;;;6.20;99.90;;;;;;5051844;28;20200;-86
2023/11/18 08:38:24;;;;;;;89.38;49.50;;;6.10;99.90;;;;;;5056528;28;20224;-83
2023/11/18 08:40:52;;;;;;;98.22;47.25;;;6.10;99.90;;;;;;5045285;28;20204;-87
2023/11/18 08:43:20;;;;;;;82.38;44.90;;;6.20;99.90;;;;;;5051381;28;20667;-83
2023/11/18 08:45:49;;;;;;;85.50;46.30;;;6.10;99.90;;;;;;5067057;28;20266;-83
2023/11/18 08:48:18;;;;;;;97.18;48.78;;;6.10;99.90;;;;;;5061051;28;20210;-79
2023/11/18 08:50:44;;;;;;;121.65;54.88;;;6.10;99.90;;;;;;5053585;28;20204;-79
2023/11/18 08:53:11;;;;;;;89.05;44.95;;;6.20;99.90;;;;;;5046623;28;20210;-83
2023/11/18 08:55:39;;;;;;;106.65;46.53;;;6.40;99.90;;;;;;5059415;28;20245;-81
2023/11/18 08:58:18;;;;;;;104.40;53.88;;;6.40;99.90;;;;;;5055419;28;20444;-81
2023/11/18 09:00:54;;;;;;;98.70;51.95;;;6.30;99.90;;;;;;5056916;28;20204;-80
2023/11/18 09:03:35;;;;;;;105.68;51.47;;;6.20;99.90;;;;;;5052624;28;20219;-82
2023/11/18 09:06:05;;;;;;;88.35;46.63;;;6.20;99.90;;;;;;5054391;28;20204;-82
2023/11/18 09:08:35;;;;;;;91.18;49.95;;;6.10;99.90;;;;;;5055881;28;20641;-82
2023/11/18 09:11:04;;;;;;;67.70;39.55;;;6.20;99.90;;;;;;5052181;28;20200;-79
2023/11/18 09:13:35;;;;;;;76.88;40.90;;;6.40;99.90;;;;;;5060531;28;20246;-82
2023/11/18 09:16:04;;;;;;;79.53;41.70;;;6.50;99.90;;;;;;5055920;28;20647;-82
2023/11/18 09:18:33;;;;;;;60.15;37.60;;;6.60;99.90;;;;;;5054650;28;20231;-82
2023/11/18 09:21:01;;;;;;;72.30;39.42;;;6.80;99.90;;;;;;5057575;28;20211;-81
2023/11/18 09:23:29;;;;;;;74.07;41.25;;;6.80;99.90;;;;;;5065265;28;20220;-82
2023/11/18 09:25:56;;;;;;;59.10;34.13;;;6.80;99.90;;;;;;5059254;28;20461;-80
2023/11/18 09:28:25;;;;;;;92.05;42.30;;;6.70;99.90;;;;;;5057486;28;20200;-82
2023/11/18 09:30:56;;;;;;;68.95;39.90;;;6.80;99.90;;;;;;5051384;28;20204;-79
2023/11/18 09:33:28;;;;;;;67.28;36.50;;;6.80;99.90;;;;;;5063143;28;20269;-80
2023/11/18 09:35:58;;;;;;;59.25;36.60;;;6.90;99.90;;;;;;5067698;28;20222;-81
2023/11/18 09:38:28;;;;;;;69.40;39.13;;;7.10;99.90;;;;;;5069097;28;20195;-82
2023/11/18 09:40:55;;;;;;;77.28;42.15;;;7.00;99.90;;;;;;5060391;28;20211;-81
2023/11/18 09:43:23;;;;;;;69.25;40.15;;;7.10;99.90;;;;;;5067579;28;20309;-80
2023/11/18 09:45:55;;;;;;;63.75;34.05;;;7.20;99.90;;;;;;5061446;28;20253;-81
2023/11/18 09:48:25;;;;;;;67.82;40.83;;;7.10;99.90;;;;;;5067118;28;20257;-79
2023/11/18 09:50:53;;;;;;;71.50;38.13;;;7.10;99.90;;;;;;5064832;28;20204;-80
2023/11/18 09:53:25;;;;;;;61.95;38.70;;;7.10;99.90;;;;;;5058302;28;20211;-81
2023/11/18 09:55:59;;;;;;;69.88;39.00;;;7.10;99.90;;;;;;5061905;28;20220;-82
2023/11/18 09:58:36;;;;;;;60.28;36.28;;;7.10;99.90;;;;;;5063167;28;20191;-81
2023/11/18 10:01:05;;;;;;;64.75;37.28;;;7.30;99.90;;;;;;5061614;28;20243;-82
2023/11/18 10:03:33;;;;;;;63.00;37.00;;;7.10;99.90;;;;;;5057418;28;20307;-81
2023/11/18 10:06:04;;;;;;;67.10;37.45;;;7.10;99.90;;;;;;5058461;28;20235;-79
2023/11/18 10:08:32;;;;;;;62.97;37.95;;;7.20;99.90;;;;;;5056350;28;20206;-80
2023/11/18 10:11:04;;;;;;;65.85;37.35;;;7.20;99.90;;;;;;5061023;28;20220;-80
2023/11/18 10:13:34;;;;;;;71.25;40.00;;;7.30;99.90;;;;;;5067654;28;20204;-82
2023/11/18 10:16:05;;;;;;;75.60;40.78;;;7.20;99.90;;;;;;5059162;28;20282;-81
2023/11/18 10:18:35;;;;;;;69.47;39.30;;;7.20;99.90;;;;;;5054473;28;20248;-80
2023/11/18 10:21:03;;;;;;;57.60;37.38;;;7.10;99.90;;;;;;5049036;28;20569;-82
2023/11/18 10:23:33;;;;;;;63.22;38.05;;;7.20;99.90;;;;;;5049563;28;20239;-80
2023/11/18 10:26:02;;;;;;;74.05;41.38;;;7.20;99.90;;;;;;5061742;28;20323;-81
2023/11/18 10:28:32;;;;;;;70.30;41.85;;;7.10;99.90;;;;;;5057353;28;20299;-81
2023/11/18 10:31:03;;;;;;;81.35;40.67;;;7.00;99.90;;;;;;5050161;28;20291;-80
2023/11/18 10:33:31;;;;;;;69.05;36.38;;;6.90;99.90;;;;;;5049379;28;20212;-81
2023/11/18 10:36:03;;;;;;;74.88;38.80;;;6.90;99.90;;;;;;5059384;28;20218;-82
2023/11/18 10:38:31;;;;;;;65.30;37.42;;;6.90;99.90;;;;;;5049700;28;20203;-81
2023/11/18 10:41:00;;;;;;;65.57;38.58;;;7.00;99.90;;;;;;5053666;28;20228;-82
2023/11/18 10:43:29;;;;;;;58.78;36.38;;;6.90;99.90;;;;;;5057205;28;20253;-82
2023/11/18 10:46:11;;;;;;;67.32;39.55;;;6.90;99.90;;;;;;5058832;28;20218;-79
2023/11/18 10:48:42;;;;;;;72.80;42.92;;;7.00;99.90;;;;;;5058000;28;20210;-80
2023/11/18 10:51:13;;;;;;;69.20;39.50;;;7.00;99.90;;;;;;5053478;28;20304;-81
2023/11/18 10:53:42;;;;;;;86.45;40.13;;;7.00;99.90;;;;;;5045489;28;20677;-81
2023/11/18 10:56:19;;;;;;;75.23;40.07;;;7.10;99.90;;;;;;5053534;28;20243;-81
2023/11/18 10:58:46;;;;;;;74.72;43.22;;;7.20;99.90;;;;;;5052987;28;20501;-80
2023/11/18 11:01:13;;;;;;;70.00;39.90;;;7.30;99.90;;;;;;5043288;28;20309;-81
2023/11/18 11:03:56;;;;;;;70.55;41.05;;;7.30;99.90;;;;;;5053063;28;20310;-81
2023/11/18 11:06:24;;;;;;;79.70;44.03;;;7.40;99.90;;;;;;5052359;28;20290;-80
2023/11/18 11:08:51;;;;;;;69.75;40.03;;;7.50;99.90;;;;;;5058902;28;20205;-80
2023/11/18 11:11:21;;;;;;;60.83;37.20;;;7.50;99.90;;;;;;5058042;28;20450;-81
2023/11/18 11:13:50;;;;;;;63.67;36.67;;;7.60;99.90;;;;;;5058752;28;20265;-80
2023/11/18 11:16:20;;;;;;;60.08;37.45;;;7.70;99.90;;;;;;5053909;28;20213;-81
2023/11/18 11:18:54;;;;;;;69.50;39.65;;;7.60;99.90;;;;;;5050389;28;20429;-80
2023/11/18 11:21:28;;;;;;;66.22;36.63;;;7.60;99.90;;;;;;5062298;28;20287;-81
2023/11/18 11:23:59;;;;;;;62.33;38.85;;;7.70;99.90;;;;;;5060172;28;20747;-81
2023/11/18 11:26:39;;;;;;;56.40;34.05;;;7.80;99.90;;;;;;5059679;28;20586;-80
2023/11/18 11:29:15;;;;;;;58.88;35.63;;;7.80;99.90;;;;;;5057184;28;20203;-82
2023/11/18 11:31:43;;;;;;;62.30;36.95;;;7.90;99.90;;;;;;5041999;28;20287;-81
2023/11/18 11:34:18;;;;;;;56.92;34.58;;;7.80;99.90;;;;;;5054126;28;20283;-82
2023/11/18 11:36:50;;;;;;;67.50;38.92;;;8.00;99.90;;;;;;5056942;28;20242;-81
2023/11/18 11:39:25;;;;;;;57.42;36.60;;;8.00;99.90;;;;;;5057756;28;20283;-81
2023/11/18 11:41:54;;;;;;;50.90;32.40;;;8.00;99.90;;;;;;5053031;28;20862;-81
2023/11/18 11:44:28;;;;;;;52.15;33.30;;;8.00;99.90;;;;;;5058736;28;20298;-82
2023/11/18 11:46:56;;;;;;;52.92;38.08;;;8.00;99.90;;;;;;5053676;28;20561;-81
2023/11/18 11:49:27;;;;;;;49.08;35.60;;;8.00;99.90;;;;;;5055586;28;20201;-81
2023/11/18 11:52:04;;;;;;;54.58;35.95;;;8.00;99.90;;;;;;5059573;28;20246;-81
2023/11/18 11:54:37;;;;;;;53.85;32.92;;;8.00;99.90;;;;;;5057092;28;20645;-83
2023/11/18 11:57:05;;;;;;;51.88;34.22;;;8.00;99.90;;;;;;5052729;28;20196;-80
2023/11/18 11:59:57;;;;;;;50.10;32.45;;;8.00;99.90;;;;;;5064845;28;20228;-81
2023/11/18 12:02:26;;;;;;;47.63;32.20;;;8.00;99.90;;;;;;5047512;28;20250;-83
2023/11/18 12:04:58;;;;;;;45.95;32.40;;;8.00;99.90;;;;;;5060824;28;20234;-81
2023/11/18 12:07:28;;;;;;;45.92;31.33;;;8.00;99.90;;;;;;5051129;28;20214;-83
2023/11/18 12:09:57;;;;;;;42.67;28.63;;;7.90;99.90;;;;;;5065635;28;20286;-83
2023/11/18 12:12:26;;;;;;;52.25;31.92;;;8.00;99.90;;;;;;5050893;28;20733;-81
2023/11/18 12:14:57;;;;;;;47.88;30.73;;;8.00;99.90;;;;;;5058703;28;20207;-80
2023/11/18 12:17:28;;;;;;;49.47;32.03;;;8.00;99.90;;;;;;5058268;28;20574;-82
2023/11/18 12:19:58;;;;;;;51.90;33.70;;;8.10;99.90;;;;;;5060289;28;20200;-83
2023/11/18 12:22:26;;;;;;;49.42;32.30;;;8.20;99.90;;;;;;5061351;28;20465;-80
2023/11/18 12:25:32;;;;;;;49.30;33.45;;;8.20;99.90;;;;;;5058525;28;20276;-82
2023/11/18 12:27:59;;;;;;;45.60;32.78;;;8.20;99.90;;;;;;5057521;28;20211;-82
2023/11/18 12:30:51;;;;;;;50.75;31.75;;;8.10;99.90;;;;;;5060652;28;20218;-81
2023/11/18 12:33:19;;;;;;;51.67;31.95;;;8.00;99.90;;;;;;5056833;28;20200;-82
2023/11/18 12:36:18;;;;;;;43.35;28.48;;;8.00;99.90;;;;;;5056629;28;20203;-82
2023/11/18 12:39:15;;;;;;;48.63;32.58;;;8.00;99.90;;;;;;5051403;28;20200;-81
2023/11/18 12:41:42;;;;;;;44.75;30.92;;;7.90;99.90;;;;;;5057773;28;20233;-82
2023/11/18 12:44:31;;;;;;;51.65;33.65;;;7.90;99.90;;;;;;5057467;28;20244;-82
2023/11/18 12:47:09;;;;;;;46.33;28.23;;;8.00;99.90;;;;;;5055833;28;20438;-82
2023/11/18 12:49:40;;;;;;;48.45;32.25;;;8.00;99.90;;;;;;5060513;28;20271;-80